sensor_id;sensor_type;location;lat;lon;timestamp;temperature;humidity
435;DHT22;204;48.942;9.256;2023-09-19T00:00:23;18.80;1.00
435;DHT22;204;48.942;9.256;2023-09-19T00:02:54;18.80;1.00
435;DHT22;204;48.942;9.256;2023-09-19T00:05:20;18.80;1.00
435;DHT22;204;48.942;9.256;2023-09-19T00:07:52;18.90;1.00
435;DHT22;204;48.942;9.256;2023-09-19T00:10:21;18.90;1.00
435;DHT22;204;48.942;9.256;2023-09-19T00:12:47;19.00;1.00
435;DHT22;204;48.942;9.256;2023-09-19T00:15:13;19.00;1.00
435;DHT22;204;48.942;9.256;2023-09-19T00:17:38;19.00;1.00
435;DHT22;204;48.942;9.256;2023-09-19T00:20:06;19.00;1.00
435;DHT22;204;48.942;9.256;2023-09-19T00:22:39;19.00;1.00
435;DHT22;204;48.942;9.256;2023-09-19T00:25:05;19.00;1.00
435;DHT22;204;48.942;9.256;2023-09-19T00:27:31;19.00;1.00
435;DHT22;204;48.942;9.256;2023-09-19T00:29:59;19.00;1.00
435;DHT22;204;48.942;9.256;2023-09-19T00:32:25;18.90;1.00
435;DHT22;204;48.942;9.256;2023-09-19T00:34:56;18.90;1.00
435;DHT22;204;48.942;9.256;2023-09-19T00:37:22;18.90;1.00
435;DHT22;204;48.942;9.256;2023-09-19T00:39:47;18.90;1.00
435;DHT22;204;48.942;9.256;2023-09-19T00:42:22;18.80;1.00
435;DHT22;204;48.942;9.256;2023-09-19T00:44:48;18.80;1.00
435;DHT22;204;48.942;9.256;2023-09-19T00:47:17;18.80;1.00
435;DHT22;204;48.942;9.256;2023-09-19T00:49:44;18.80;1.00
435;DHT22;204;48.942;9.256;2023-09-19T00:52:14;18.80;1.00
435;DHT22;204;48.942;9.256;2023-09-19T00:54:41;18.80;1.00
435;DHT22;204;48.942;9.256;2023-09-19T00:57:06;18.80;1.00
435;DHT22;204;48.942;9.256;2023-09-19T00:59:33;18.80;1.00
435;DHT22;204;48.942;9.256;2023-09-19T01:02:02;18.80;1.00
435;DHT22;204;48.942;9.256;2023-09-19T01:04:28;18.90;1.00
435;DHT22;204;48.942;9.256;2023-09-19T01:06:54;18.80;1.00
435;DHT22;204;48.942;9.256;2023-09-19T01:09:20;18.90;1.00
435;DHT22;204;48.942;9.256;2023-09-19T01:11:48;18.90;1.00
435;DHT22;204;48.942;9.256;2023-09-19T01:14:53;18.90;1.00
435;DHT22;204;48.942;9.256;2023-09-19T01:17:44;18.90;1.00
435;DHT22;204;48.942;9.256;2023-09-19T01:20:19;18.90;1.00
435;DHT22;204;48.942;9.256;2023-09-19T01:30:56;18.90;1.00
435;DHT22;204;48.942;9.256;2023-09-19T01:33:24;18.90;1.00
435;DHT22;204;48.942;9.256;2023-09-19T01:35:51;18.90;1.00
435;DHT22;204;48.942;9.256;2023-09-19T01:38:19;18.90;1.00
435;DHT22;204;48.942;9.256;2023-09-19T01:41:03;18.90;1.00
435;DHT22;204;48.942;9.256;2023-09-19T01:43:36;18.90;1.00
435;DHT22;204;48.942;9.256;2023-09-19T01:46:14;18.80;1.00
435;DHT22;204;48.942;9.256;2023-09-19T01:48:54;18.90;1.00
435;DHT22;204;48.942;9.256;2023-09-19T01:56:39;18.90;1.00
435;DHT22;204;48.942;9.256;2023-09-19T01:59:08;18.80;1.00
435;DHT22;204;48.942;9.256;2023-09-19T02:01:37;18.80;1.00
435;DHT22;204;48.942;9.256;2023-09-19T02:04:03;18.80;1.00
435;DHT22;204;48.942;9.256;2023-09-19T02:06:29;18.70;1.00
435;DHT22;204;48.942;9.256;2023-09-19T02:08:55;18.70;1.00
435;DHT22;204;48.942;9.256;2023-09-19T02:11:21;18.60;1.00
435;DHT22;204;48.942;9.256;2023-09-19T02:13:46;18.60;1.00
435;DHT22;204;48.942;9.256;2023-09-19T02:16:12;18.60;1.00
435;DHT22;204;48.942;9.256;2023-09-19T02:18:38;18.70;1.00
435;DHT22;204;48.942;9.256;2023-09-19T02:21:04;18.60;1.00
435;DHT22;204;48.942;9.256;2023-09-19T02:23:33;18.60;1.00
435;DHT22;204;48.942;9.256;2023-09-19T02:25:59;18.60;1.00
435;DHT22;204;48.942;9.256;2023-09-19T02:28:30;18.60;1.00
435;DHT22;204;48.942;9.256;2023-09-19T02:30:57;18.50;1.00
435;DHT22;204;48.942;9.256;2023-09-19T02:33:23;18.50;1.00
435;DHT22;204;48.942;9.256;2023-09-19T02:35:49;18.40;1.00
435;DHT22;204;48.942;9.256;2023-09-19T02:38:15;18.30;1.00
435;DHT22;204;48.942;9.256;2023-09-19T02:40:46;18.20;1.00
435;DHT22;204;48.942;9.256;2023-09-19T02:43:12;18.10;1.00
435;DHT22;204;48.942;9.256;2023-09-19T02:45:37;18.10;1.00
435;DHT22;204;48.942;9.256;2023-09-19T02:48:03;18.00;1.00
435;DHT22;204;48.942;9.256;2023-09-19T02:50:29;17.90;1.00
435;DHT22;204;48.942;9.256;2023-09-19T02:52:55;17.80;1.00
435;DHT22;204;48.942;9.256;2023-09-19T02:55:21;17.80;1.00
435;DHT22;204;48.942;9.256;2023-09-19T02:57:52;17.80;1.00
435;DHT22;204;48.942;9.256;2023-09-19T03:00:19;17.80;1.00
435;DHT22;204;48.942;9.256;2023-09-19T03:02:54;17.80;1.00
435;DHT22;204;48.942;9.256;2023-09-19T03:05:20;17.80;1.00
435;DHT22;204;48.942;9.256;2023-09-19T03:07:47;17.90;1.00
435;DHT22;204;48.942;9.256;2023-09-19T03:10:19;17.90;1.00
435;DHT22;204;48.942;9.256;2023-09-19T03:12:44;18.00;1.00
435;DHT22;204;48.942;9.256;2023-09-19T03:15:10;18.00;1.00
435;DHT22;204;48.942;9.256;2023-09-19T03:17:36;18.00;1.00
435;DHT22;204;48.942;9.256;2023-09-19T03:20:03;18.00;1.00
435;DHT22;204;48.942;9.256;2023-09-19T03:22:34;18.00;1.00
435;DHT22;204;48.942;9.256;2023-09-19T03:24:59;18.00;1.00
435;DHT22;204;48.942;9.256;2023-09-19T03:27:26;18.00;1.00
435;DHT22;204;48.942;9.256;2023-09-19T03:29:52;18.00;1.00
435;DHT22;204;48.942;9.256;2023-09-19T03:32:19;18.00;1.00
435;DHT22;204;48.942;9.256;2023-09-19T03:34:45;18.10;1.00
435;DHT22;204;48.942;9.256;2023-09-19T03:37:10;18.10;1.00
435;DHT22;204;48.942;9.256;2023-09-19T03:39:37;18.10;1.00
435;DHT22;204;48.942;9.256;2023-09-19T03:42:03;18.10;1.00
435;DHT22;204;48.942;9.256;2023-09-19T03:44:32;18.10;1.00
435;DHT22;204;48.942;9.256;2023-09-19T03:46:58;18.10;1.00
435;DHT22;204;48.942;9.256;2023-09-19T03:49:24;18.10;1.00
435;DHT22;204;48.942;9.256;2023-09-19T03:51:49;18.10;1.00
435;DHT22;204;48.942;9.256;2023-09-19T03:54:15;18.20;1.00
435;DHT22;204;48.942;9.256;2023-09-19T03:56:42;18.20;1.00
435;DHT22;204;48.942;9.256;2023-09-19T03:59:09;18.20;1.00
435;DHT22;204;48.942;9.256;2023-09-19T04:01:35;18.20;1.00
435;DHT22;204;48.942;9.256;2023-09-19T04:04:00;18.20;1.00
435;DHT22;204;48.942;9.256;2023-09-19T04:06:34;18.20;1.00
435;DHT22;204;48.942;9.256;2023-09-19T04:09:00;18.20;1.00
435;DHT22;204;48.942;9.256;2023-09-19T04:11:27;18.20;1.00
435;DHT22;204;48.942;9.256;2023-09-19T04:13:52;18.20;1.00
435;DHT22;204;48.942;9.256;2023-09-19T04:16:18;18.20;1.00
435;DHT22;204;48.942;9.256;2023-09-19T04:18:43;18.20;1.00
435;DHT22;204;48.942;9.256;2023-09-19T04:21:09;18.30;1.00
435;DHT22;204;48.942;9.256;2023-09-19T04:23:35;18.30;1.00
435;DHT22;204;48.942;9.256;2023-09-19T04:26:00;18.20;1.00
435;DHT22;204;48.942;9.256;2023-09-19T04:28:26;18.20;1.00
435;DHT22;204;48.942;9.256;2023-09-19T04:30:53;18.10;1.00
435;DHT22;204;48.942;9.256;2023-09-19T04:33:18;18.00;1.00
435;DHT22;204;48.942;9.256;2023-09-19T04:35:44;17.90;1.00
435;DHT22;204;48.942;9.256;2023-09-19T04:38:10;17.90;1.00
435;DHT22;204;48.942;9.256;2023-09-19T04:40:35;17.90;1.00
435;DHT22;204;48.942;9.256;2023-09-19T04:43:01;17.80;1.00
435;DHT22;204;48.942;9.256;2023-09-19T04:45:27;17.80;1.00
435;DHT22;204;48.942;9.256;2023-09-19T04:47:53;17.80;1.00
435;DHT22;204;48.942;9.256;2023-09-19T04:50:19;17.80;1.00
435;DHT22;204;48.942;9.256;2023-09-19T04:52:50;17.90;1.00
435;DHT22;204;48.942;9.256;2023-09-19T04:55:17;17.90;1.00
435;DHT22;204;48.942;9.256;2023-09-19T04:57:44;18.00;1.00
435;DHT22;204;48.942;9.256;2023-09-19T05:00:17;18.00;1.00
435;DHT22;204;48.942;9.256;2023-09-19T05:02:45;18.00;1.00
435;DHT22;204;48.942;9.256;2023-09-19T05:05:11;18.10;1.00
435;DHT22;204;48.942;9.256;2023-09-19T05:07:38;18.10;1.00
435;DHT22;204;48.942;9.256;2023-09-19T05:10:05;18.10;1.00
435;DHT22;204;48.942;9.256;2023-09-19T05:12:35;18.10;1.00
435;DHT22;204;48.942;9.256;2023-09-19T05:15:02;18.20;1.00
435;DHT22;204;48.942;9.256;2023-09-19T05:17:29;18.20;1.00
435;DHT22;204;48.942;9.256;2023-09-19T05:19:54;18.20;1.00
435;DHT22;204;48.942;9.256;2023-09-19T05:22:20;18.20;1.00
435;DHT22;204;48.942;9.256;2023-09-19T05:24:46;18.20;1.00
435;DHT22;204;48.942;9.256;2023-09-19T05:27:14;18.30;1.00
435;DHT22;204;48.942;9.256;2023-09-19T05:29:43;18.20;1.00
435;DHT22;204;48.942;9.256;2023-09-19T05:32:10;18.10;1.00
435;DHT22;204;48.942;9.256;2023-09-19T05:34:36;18.00;1.00
435;DHT22;204;48.942;9.256;2023-09-19T05:37:01;18.00;1.00
435;DHT22;204;48.942;9.256;2023-09-19T05:39:27;17.90;1.00
435;DHT22;204;48.942;9.256;2023-09-19T05:41:53;17.90;1.00
435;DHT22;204;48.942;9.256;2023-09-19T05:44:18;17.80;1.00
435;DHT22;204;48.942;9.256;2023-09-19T05:46:44;17.80;1.00
435;DHT22;204;48.942;9.256;2023-09-19T05:49:13;17.70;1.00
435;DHT22;204;48.942;9.256;2023-09-19T05:51:39;17.80;1.00
435;DHT22;204;48.942;9.256;2023-09-19T05:54:04;17.80;1.00
435;DHT22;204;48.942;9.256;2023-09-19T05:56:30;17.80;1.00
435;DHT22;204;48.942;9.256;2023-09-19T05:58:56;17.80;1.00
435;DHT22;204;48.942;9.256;2023-09-19T06:01:22;17.90;1.00
435;DHT22;204;48.942;9.256;2023-09-19T06:03:48;17.90;1.00
435;DHT22;204;48.942;9.256;2023-09-19T06:06:13;18.00;1.00
435;DHT22;204;48.942;9.256;2023-09-19T06:08:39;18.00;1.00
435;DHT22;204;48.942;9.256;2023-09-19T06:11:05;18.10;1.00
435;DHT22;204;48.942;9.256;2023-09-19T06:13:34;18.20;1.00
435;DHT22;204;48.942;9.256;2023-09-19T06:16:01;18.30;1.00
435;DHT22;204;48.942;9.256;2023-09-19T06:18:31;18.40;1.00
435;DHT22;204;48.942;9.256;2023-09-19T06:20:59;18.40;1.00
435;DHT22;204;48.942;9.256;2023-09-19T06:23:25;18.40;1.00
435;DHT22;204;48.942;9.256;2023-09-19T06:25:52;18.50;1.00
435;DHT22;204;48.942;9.256;2023-09-19T06:28:18;18.60;1.00
435;DHT22;204;48.942;9.256;2023-09-19T06:30:49;18.70;1.00
435;DHT22;204;48.942;9.256;2023-09-19T06:33:15;18.80;1.00
435;DHT22;204;48.942;9.256;2023-09-19T06:35:40;18.90;1.00
435;DHT22;204;48.942;9.256;2023-09-19T06:38:07;19.10;1.00
435;DHT22;204;48.942;9.256;2023-09-19T06:40:34;19.20;1.00
435;DHT22;204;48.942;9.256;2023-09-19T06:43:00;19.40;1.00
435;DHT22;204;48.942;9.256;2023-09-19T06:45:27;19.50;1.00
435;DHT22;204;48.942;9.256;2023-09-19T06:47:53;19.50;1.00
435;DHT22;204;48.942;9.256;2023-09-19T06:50:23;19.60;1.00
435;DHT22;204;48.942;9.256;2023-09-19T06:52:53;19.60;1.00
435;DHT22;204;48.942;9.256;2023-09-19T06:55:19;19.70;1.00
435;DHT22;204;48.942;9.256;2023-09-19T06:57:46;19.80;1.00
435;DHT22;204;48.942;9.256;2023-09-19T07:00:13;19.90;1.00
435;DHT22;204;48.942;9.256;2023-09-19T07:02:44;20.00;1.00
435;DHT22;204;48.942;9.256;2023-09-19T07:05:10;20.20;1.00
435;DHT22;204;48.942;9.256;2023-09-19T07:07:36;20.30;1.00
435;DHT22;204;48.942;9.256;2023-09-19T07:10:03;20.40;1.00
435;DHT22;204;48.942;9.256;2023-09-19T07:12:31;20.60;1.00
435;DHT22;204;48.942;9.256;2023-09-19T07:14:56;20.70;1.00
435;DHT22;204;48.942;9.256;2023-09-19T07:17:22;20.80;1.00
435;DHT22;204;48.942;9.256;2023-09-19T07:19:49;20.80;1.00
435;DHT22;204;48.942;9.256;2023-09-19T07:22:15;20.80;99.90
435;DHT22;204;48.942;9.256;2023-09-19T07:24:41;20.60;99.90
435;DHT22;204;48.942;9.256;2023-09-19T07:27:07;20.60;99.90
435;DHT22;204;48.942;9.256;2023-09-19T07:29:32;20.60;99.90
435;DHT22;204;48.942;9.256;2023-09-19T07:31:58;20.60;99.90
435;DHT22;204;48.942;9.256;2023-09-19T07:34:23;20.50;99.90
435;DHT22;204;48.942;9.256;2023-09-19T07:36:49;20.40;99.90
435;DHT22;204;48.942;9.256;2023-09-19T07:39:15;20.30;99.90
435;DHT22;204;48.942;9.256;2023-09-19T07:41:41;20.40;99.90
435;DHT22;204;48.942;9.256;2023-09-19T07:44:07;20.30;99.90
435;DHT22;204;48.942;9.256;2023-09-19T07:46:33;20.30;99.90
435;DHT22;204;48.942;9.256;2023-09-19T07:48:58;20.40;99.90
435;DHT22;204;48.942;9.256;2023-09-19T07:51:25;20.40;99.90
435;DHT22;204;48.942;9.256;2023-09-19T07:53:51;20.40;99.90
435;DHT22;204;48.942;9.256;2023-09-19T07:56:18;20.30;99.90
435;DHT22;204;48.942;9.256;2023-09-19T07:58:45;20.20;99.90
435;DHT22;204;48.942;9.256;2023-09-19T08:01:11;20.20;99.90
435;DHT22;204;48.942;9.256;2023-09-19T08:03:39;20.10;99.90
435;DHT22;204;48.942;9.256;2023-09-19T08:06:07;20.10;99.90
435;DHT22;204;48.942;9.256;2023-09-19T08:08:34;20.00;99.90
435;DHT22;204;48.942;9.256;2023-09-19T08:11:03;20.00;99.90
435;DHT22;204;48.942;9.256;2023-09-19T08:13:39;20.00;99.90
435;DHT22;204;48.942;9.256;2023-09-19T08:16:18;20.10;99.90
435;DHT22;204;48.942;9.256;2023-09-19T08:18:48;20.20;99.90
435;DHT22;204;48.942;9.256;2023-09-19T08:21:14;20.40;99.90
435;DHT22;204;48.942;9.256;2023-09-19T08:23:41;20.50;99.90
435;DHT22;204;48.942;9.256;2023-09-19T08:26:07;20.60;99.90
435;DHT22;204;48.942;9.256;2023-09-19T08:28:36;20.80;99.90
435;DHT22;204;48.942;9.256;2023-09-19T08:31:06;20.90;99.90
435;DHT22;204;48.942;9.256;2023-09-19T08:33:36;20.90;99.90
435;DHT22;204;48.942;9.256;2023-09-19T08:36:06;21.00;99.90
435;DHT22;204;48.942;9.256;2023-09-19T08:38:34;21.00;99.90
435;DHT22;204;48.942;9.256;2023-09-19T08:41:00;21.00;99.90
435;DHT22;204;48.942;9.256;2023-09-19T08:43:27;21.00;99.90
435;DHT22;204;48.942;9.256;2023-09-19T08:46:12;21.10;99.90
435;DHT22;204;48.942;9.256;2023-09-19T08:48:54;21.10;99.90
435;DHT22;204;48.942;9.256;2023-09-19T08:51:30;21.20;99.90
435;DHT22;204;48.942;9.256;2023-09-19T08:54:08;21.30;99.90
435;DHT22;204;48.942;9.256;2023-09-19T08:56:39;21.50;99.90
435;DHT22;204;48.942;9.256;2023-09-19T08:59:07;21.60;99.90
435;DHT22;204;48.942;9.256;2023-09-19T09:01:38;21.60;99.90
435;DHT22;204;48.942;9.256;2023-09-19T09:04:08;21.60;99.90
435;DHT22;204;48.942;9.256;2023-09-19T09:06:34;21.70;99.90
435;DHT22;204;48.942;9.256;2023-09-19T09:09:02;21.80;99.90
435;DHT22;204;48.942;9.256;2023-09-19T09:11:29;21.90;99.90
435;DHT22;204;48.942;9.256;2023-09-19T09:13:58;22.00;99.90
435;DHT22;204;48.942;9.256;2023-09-19T09:16:24;22.20;99.90
435;DHT22;204;48.942;9.256;2023-09-19T09:18:51;22.40;99.90
435;DHT22;204;48.942;9.256;2023-09-19T09:21:18;22.60;99.90
435;DHT22;204;48.942;9.256;2023-09-19T09:23:43;22.90;99.90
435;DHT22;204;48.942;9.256;2023-09-19T09:26:09;23.10;99.90
435;DHT22;204;48.942;9.256;2023-09-19T09:28:35;23.10;99.90
435;DHT22;204;48.942;9.256;2023-09-19T09:31:04;23.20;99.90
435;DHT22;204;48.942;9.256;2023-09-19T09:33:36;23.20;99.90
435;DHT22;204;48.942;9.256;2023-09-19T09:36:03;23.50;99.90
435;DHT22;204;48.942;9.256;2023-09-19T09:38:43;23.80;99.90
435;DHT22;204;48.942;9.256;2023-09-19T09:41:09;23.90;99.90
435;DHT22;204;48.942;9.256;2023-09-19T09:43:41;24.00;99.90
435;DHT22;204;48.942;9.256;2023-09-19T09:48:55;24.10;99.90
435;DHT22;204;48.942;9.256;2023-09-19T09:51:42;24.30;99.90
435;DHT22;204;48.942;9.256;2023-09-19T09:54:15;24.50;99.90
435;DHT22;204;48.942;9.256;2023-09-19T09:57:00;24.60;99.90
435;DHT22;204;48.942;9.256;2023-09-19T09:59:51;24.50;99.90
435;DHT22;204;48.942;9.256;2023-09-19T10:02:22;24.50;99.90
435;DHT22;204;48.942;9.256;2023-09-19T10:04:53;24.50;99.90
435;DHT22;204;48.942;9.256;2023-09-19T10:07:39;24.60;99.90
435;DHT22;204;48.942;9.256;2023-09-19T10:10:15;24.90;99.90
435;DHT22;204;48.942;9.256;2023-09-19T10:12:47;24.90;99.90
435;DHT22;204;48.942;9.256;2023-09-19T10:15:17;25.10;99.90
435;DHT22;204;48.942;9.256;2023-09-19T10:17:46;25.10;99.90
435;DHT22;204;48.942;9.256;2023-09-19T10:20:13;25.20;99.90
435;DHT22;204;48.942;9.256;2023-09-19T10:23:10;25.40;99.90
435;DHT22;204;48.942;9.256;2023-09-19T10:25:46;25.70;99.90
435;DHT22;204;48.942;9.256;2023-09-19T10:28:14;25.60;99.90
435;DHT22;204;48.942;9.256;2023-09-19T10:30:44;25.40;99.90
435;DHT22;204;48.942;9.256;2023-09-19T10:33:12;25.10;99.90
435;DHT22;204;48.942;9.256;2023-09-19T10:35:39;24.80;99.90
435;DHT22;204;48.942;9.256;2023-09-19T10:38:10;24.80;99.90
435;DHT22;204;48.942;9.256;2023-09-19T10:40:37;24.50;99.90
435;DHT22;204;48.942;9.256;2023-09-19T10:43:06;24.40;99.90
435;DHT22;204;48.942;9.256;2023-09-19T10:45:35;24.50;99.90
435;DHT22;204;48.942;9.256;2023-09-19T10:48:04;24.50;99.90
435;DHT22;204;48.942;9.256;2023-09-19T10:50:35;24.40;99.90
435;DHT22;204;48.942;9.256;2023-09-19T10:53:06;24.30;99.90
435;DHT22;204;48.942;9.256;2023-09-19T10:55:34;24.20;99.90
435;DHT22;204;48.942;9.256;2023-09-19T10:58:05;24.10;99.90
435;DHT22;204;48.942;9.256;2023-09-19T11:00:58;24.10;99.90
435;DHT22;204;48.942;9.256;2023-09-19T11:03:37;24.20;99.90
435;DHT22;204;48.942;9.256;2023-09-19T11:06:18;24.30;99.90
435;DHT22;204;48.942;9.256;2023-09-19T11:09:03;24.40;99.90
435;DHT22;204;48.942;9.256;2023-09-19T11:30:38;23.60;99.90
435;DHT22;204;48.942;9.256;2023-09-19T11:33:24;23.70;99.90
435;DHT22;204;48.942;9.256;2023-09-19T11:36:03;24.00;99.90
435;DHT22;204;48.942;9.256;2023-09-19T11:46:27;24.10;99.90
435;DHT22;204;48.942;9.256;2023-09-19T11:48:54;24.10;99.90
435;DHT22;204;48.942;9.256;2023-09-19T11:51:21;24.00;99.90
435;DHT22;204;48.942;9.256;2023-09-19T11:53:58;23.90;99.90
435;DHT22;204;48.942;9.256;2023-09-19T11:56:28;24.00;99.90
435;DHT22;204;48.942;9.256;2023-09-19T11:58:55;24.00;99.90
435;DHT22;204;48.942;9.256;2023-09-19T12:01:25;24.00;99.90
435;DHT22;204;48.942;9.256;2023-09-19T12:03:55;24.00;99.90
435;DHT22;204;48.942;9.256;2023-09-19T12:06:29;24.10;99.90
435;DHT22;204;48.942;9.256;2023-09-19T12:08:55;24.20;99.90
435;DHT22;204;48.942;9.256;2023-09-19T12:11:23;24.20;99.90
435;DHT22;204;48.942;9.256;2023-09-19T12:13:50;24.10;99.90
435;DHT22;204;48.942;9.256;2023-09-19T12:16:20;24.00;99.90
435;DHT22;204;48.942;9.256;2023-09-19T12:18:49;24.00;99.90
435;DHT22;204;48.942;9.256;2023-09-19T12:21:23;23.90;99.90
435;DHT22;204;48.942;9.256;2023-09-19T12:24:04;23.90;99.90
435;DHT22;204;48.942;9.256;2023-09-19T12:26:37;23.90;99.90
435;DHT22;204;48.942;9.256;2023-09-19T12:29:03;24.00;99.90
435;DHT22;204;48.942;9.256;2023-09-19T12:31:31;24.10;99.90
435;DHT22;204;48.942;9.256;2023-09-19T12:34:01;24.10;99.90
435;DHT22;204;48.942;9.256;2023-09-19T12:36:27;24.20;99.90
435;DHT22;204;48.942;9.256;2023-09-19T12:38:56;24.30;99.90
435;DHT22;204;48.942;9.256;2023-09-19T12:41:24;24.50;99.90
435;DHT22;204;48.942;9.256;2023-09-19T12:43:52;24.70;99.90
435;DHT22;204;48.942;9.256;2023-09-19T12:46:20;24.70;99.90
435;DHT22;204;48.942;9.256;2023-09-19T12:49:19;24.60;99.90
435;DHT22;204;48.942;9.256;2023-09-19T12:51:46;24.50;99.90
435;DHT22;204;48.942;9.256;2023-09-19T12:54:13;24.40;99.90
435;DHT22;204;48.942;9.256;2023-09-19T12:56:44;24.30;99.90
435;DHT22;204;48.942;9.256;2023-09-19T12:59:14;24.40;99.90
435;DHT22;204;48.942;9.256;2023-09-19T13:01:41;24.50;99.90
435;DHT22;204;48.942;9.256;2023-09-19T13:04:16;24.50;99.90
435;DHT22;204;48.942;9.256;2023-09-19T13:06:49;24.60;99.90
435;DHT22;204;48.942;9.256;2023-09-19T13:09:19;24.60;99.90
435;DHT22;204;48.942;9.256;2023-09-19T13:11:46;24.70;99.90
435;DHT22;204;48.942;9.256;2023-09-19T13:14:26;24.70;99.90
435;DHT22;204;48.942;9.256;2023-09-19T13:17:09;24.60;99.90
435;DHT22;204;48.942;9.256;2023-09-19T13:20:00;24.60;99.90
435;DHT22;204;48.942;9.256;2023-09-19T13:22:38;24.60;99.90
435;DHT22;204;48.942;9.256;2023-09-19T13:25:15;24.50;99.90
435;DHT22;204;48.942;9.256;2023-09-19T13:27:49;24.50;99.90
435;DHT22;204;48.942;9.256;2023-09-19T13:30:17;24.70;99.90
435;DHT22;204;48.942;9.256;2023-09-19T13:32:44;24.80;99.90
435;DHT22;204;48.942;9.256;2023-09-19T13:35:10;24.90;99.90
435;DHT22;204;48.942;9.256;2023-09-19T13:37:37;24.90;99.90
435;DHT22;204;48.942;9.256;2023-09-19T13:40:10;24.80;99.90
435;DHT22;204;48.942;9.256;2023-09-19T13:42:37;24.60;99.90
435;DHT22;204;48.942;9.256;2023-09-19T13:45:03;24.50;99.90
435;DHT22;204;48.942;9.256;2023-09-19T13:47:33;24.40;99.90
435;DHT22;204;48.942;9.256;2023-09-19T13:49:59;24.30;99.90
435;DHT22;204;48.942;9.256;2023-09-19T13:52:26;24.20;99.90
435;DHT22;204;48.942;9.256;2023-09-19T13:54:54;24.00;99.90
435;DHT22;204;48.942;9.256;2023-09-19T13:57:22;23.90;99.90
435;DHT22;204;48.942;9.256;2023-09-19T13:59:48;23.70;99.90
435;DHT22;204;48.942;9.256;2023-09-19T14:02:13;23.60;99.90
435;DHT22;204;48.942;9.256;2023-09-19T14:04:39;23.60;99.90
435;DHT22;204;48.942;9.256;2023-09-19T14:07:05;23.60;99.90
435;DHT22;204;48.942;9.256;2023-09-19T14:09:33;23.60;99.90
435;DHT22;204;48.942;9.256;2023-09-19T14:11:59;23.60;99.90
435;DHT22;204;48.942;9.256;2023-09-19T14:14:25;23.70;99.90
435;DHT22;204;48.942;9.256;2023-09-19T14:16:50;23.70;99.90
435;DHT22;204;48.942;9.256;2023-09-19T14:19:17;23.70;99.90
435;DHT22;204;48.942;9.256;2023-09-19T14:21:43;23.60;99.90
435;DHT22;204;48.942;9.256;2023-09-19T14:24:09;23.60;99.90
435;DHT22;204;48.942;9.256;2023-09-19T14:26:35;23.60;99.90
435;DHT22;204;48.942;9.256;2023-09-19T14:29:01;23.70;99.90
435;DHT22;204;48.942;9.256;2023-09-19T14:31:27;23.60;99.90
435;DHT22;204;48.942;9.256;2023-09-19T14:33:56;23.60;99.90
435;DHT22;204;48.942;9.256;2023-09-19T14:36:22;23.60;99.90
435;DHT22;204;48.942;9.256;2023-09-19T14:38:48;23.60;99.90
435;DHT22;204;48.942;9.256;2023-09-19T14:41:19;23.60;99.90
435;DHT22;204;48.942;9.256;2023-09-19T14:43:44;23.60;99.90
435;DHT22;204;48.942;9.256;2023-09-19T14:46:10;23.70;99.90
435;DHT22;204;48.942;9.256;2023-09-19T14:48:36;23.70;99.90
435;DHT22;204;48.942;9.256;2023-09-19T14:51:03;23.70;99.90
435;DHT22;204;48.942;9.256;2023-09-19T14:53:29;23.70;99.90
435;DHT22;204;48.942;9.256;2023-09-19T14:55:55;23.80;99.90
435;DHT22;204;48.942;9.256;2023-09-19T14:58:21;23.90;99.90
435;DHT22;204;48.942;9.256;2023-09-19T15:00:47;24.00;99.90
435;DHT22;204;48.942;9.256;2023-09-19T15:03:13;24.10;99.90
435;DHT22;204;48.942;9.256;2023-09-19T15:05:41;24.30;99.90
435;DHT22;204;48.942;9.256;2023-09-19T15:08:07;24.40;99.90
435;DHT22;204;48.942;9.256;2023-09-19T15:10:32;24.40;99.90
435;DHT22;204;48.942;9.256;2023-09-19T15:12:58;24.40;99.90
435;DHT22;204;48.942;9.256;2023-09-19T15:15:23;24.40;99.90
435;DHT22;204;48.942;9.256;2023-09-19T15:17:49;24.40;99.90
435;DHT22;204;48.942;9.256;2023-09-19T15:20:14;24.30;99.90
435;DHT22;204;48.942;9.256;2023-09-19T15:22:40;24.30;99.90
435;DHT22;204;48.942;9.256;2023-09-19T15:25:07;24.20;99.90
435;DHT22;204;48.942;9.256;2023-09-19T15:27:32;24.10;99.90
435;DHT22;204;48.942;9.256;2023-09-19T15:30:01;24.10;99.90
435;DHT22;204;48.942;9.256;2023-09-19T15:32:30;24.10;99.90
435;DHT22;204;48.942;9.256;2023-09-19T15:34:56;24.00;99.90
435;DHT22;204;48.942;9.256;2023-09-19T15:37:22;24.00;99.90
435;DHT22;204;48.942;9.256;2023-09-19T15:39:47;24.00;99.90
435;DHT22;204;48.942;9.256;2023-09-19T15:42:13;24.00;99.90
435;DHT22;204;48.942;9.256;2023-09-19T15:44:41;24.00;99.90
435;DHT22;204;48.942;9.256;2023-09-19T15:47:09;24.00;99.90
435;DHT22;204;48.942;9.256;2023-09-19T15:49:35;24.00;99.90
435;DHT22;204;48.942;9.256;2023-09-19T15:52:00;23.90;99.90
435;DHT22;204;48.942;9.256;2023-09-19T15:54:26;23.90;99.90
435;DHT22;204;48.942;9.256;2023-09-19T15:56:53;23.80;99.90
435;DHT22;204;48.942;9.256;2023-09-19T15:59:18;23.80;99.90
435;DHT22;204;48.942;9.256;2023-09-19T16:01:45;23.70;99.90
435;DHT22;204;48.942;9.256;2023-09-19T16:04:11;23.60;99.90
435;DHT22;204;48.942;9.256;2023-09-19T16:06:37;23.60;99.90
435;DHT22;204;48.942;9.256;2023-09-19T16:09:04;23.60;99.90
435;DHT22;204;48.942;9.256;2023-09-19T16:11:34;23.60;99.90
435;DHT22;204;48.942;9.256;2023-09-19T16:14:03;23.60;99.90
435;DHT22;204;48.942;9.256;2023-09-19T16:16:33;23.50;99.90
435;DHT22;204;48.942;9.256;2023-09-19T16:19:01;23.40;99.90
435;DHT22;204;48.942;9.256;2023-09-19T16:21:29;23.40;99.90
435;DHT22;204;48.942;9.256;2023-09-19T16:23:57;23.30;99.90
435;DHT22;204;48.942;9.256;2023-09-19T16:26:23;23.30;99.90
435;DHT22;204;48.942;9.256;2023-09-19T16:28:51;23.30;99.90
435;DHT22;204;48.942;9.256;2023-09-19T16:31:17;23.30;99.90
435;DHT22;204;48.942;9.256;2023-09-19T16:33:46;23.20;99.90
435;DHT22;204;48.942;9.256;2023-09-19T16:36:13;23.10;99.90
435;DHT22;204;48.942;9.256;2023-09-19T16:38:40;23.00;99.90
435;DHT22;204;48.942;9.256;2023-09-19T16:41:07;23.00;99.90
435;DHT22;204;48.942;9.256;2023-09-19T16:43:33;23.00;99.90
435;DHT22;204;48.942;9.256;2023-09-19T16:46:01;23.00;99.90
435;DHT22;204;48.942;9.256;2023-09-19T16:48:28;22.90;99.90
435;DHT22;204;48.942;9.256;2023-09-19T16:51:02;22.90;99.90
435;DHT22;204;48.942;9.256;2023-09-19T16:53:29;22.80;99.90
435;DHT22;204;48.942;9.256;2023-09-19T16:55:55;22.70;99.90
435;DHT22;204;48.942;9.256;2023-09-19T16:58:25;22.70;99.90
435;DHT22;204;48.942;9.256;2023-09-19T17:00:51;22.60;99.90
435;DHT22;204;48.942;9.256;2023-09-19T17:03:16;22.50;99.90
435;DHT22;204;48.942;9.256;2023-09-19T17:05:42;22.50;99.90
435;DHT22;204;48.942;9.256;2023-09-19T17:08:09;22.40;99.90
435;DHT22;204;48.942;9.256;2023-09-19T17:10:36;22.30;99.90
435;DHT22;204;48.942;9.256;2023-09-19T17:13:02;22.20;99.90
435;DHT22;204;48.942;9.256;2023-09-19T17:15:32;22.10;99.90
435;DHT22;204;48.942;9.256;2023-09-19T17:17:58;21.90;99.90
435;DHT22;204;48.942;9.256;2023-09-19T17:20:25;21.80;99.90
435;DHT22;204;48.942;9.256;2023-09-19T17:22:51;21.70;99.90
435;DHT22;204;48.942;9.256;2023-09-19T17:25:17;21.50;99.90
435;DHT22;204;48.942;9.256;2023-09-19T17:27:42;21.40;99.90
435;DHT22;204;48.942;9.256;2023-09-19T17:30:13;21.30;99.90
435;DHT22;204;48.942;9.256;2023-09-19T17:32:45;21.10;99.90